createdAt,value
2023-03-04T00:00:07.456Z,99.90
2023-03-04T00:02:34.266Z,99.90
2023-03-04T00:05:00.948Z,99.90
2023-03-04T00:07:27.659Z,99.90
2023-03-04T00:09:54.358Z,99.90
2023-03-04T00:12:21.266Z,99.90
2023-03-04T00:14:47.965Z,99.90
2023-03-04T00:17:14.701Z,99.90
2023-03-04T00:19:41.329Z,99.90
2023-03-04T00:22:07.967Z,99.90
2023-03-04T00:24:35.182Z,99.90
2023-03-04T00:27:01.919Z,99.90
2023-03-04T00:29:28.637Z,99.90
2023-03-04T05:31:58.499Z,99.90
2023-03-04T05:34:25.155Z,99.90
2023-03-04T05:36:51.866Z,99.90
2023-03-04T05:39:18.565Z,99.90
2023-03-04T05:41:45.238Z,99.90
2023-03-04T05:44:11.842Z,99.90
2023-03-04T05:46:38.467Z,99.90
2023-03-04T05:49:05.363Z,99.90
2023-03-04T05:51:32.015Z,99.90
2023-03-04T05:53:58.659Z,99.90
2023-03-04T05:56:25.306Z,99.90
2023-03-04T05:58:51.899Z,99.90
2023-03-04T06:01:18.539Z,99.90
2023-03-04T06:03:45.292Z,99.90
2023-03-04T06:06:12.051Z,99.90
2023-03-04T06:08:38.672Z,99.90
2023-03-04T06:11:05.854Z,99.90
2023-03-04T06:13:33.025Z,99.90
2023-03-04T06:16:00.385Z,99.90
2023-03-04T06:18:28.038Z,99.90
2023-03-04T06:20:59.176Z,99.90
2023-03-04T06:23:26.641Z,99.90
2023-03-04T06:25:58.355Z,99.90
2023-03-04T06:28:25.316Z,99.90
2023-03-04T06:30:53.164Z,99.90
2023-03-04T06:33:20.439Z,99.90
2023-03-04T06:35:47.332Z,99.90
2023-03-04T06:38:14.379Z,99.90
2023-03-04T06:40:40.990Z,99.90
2023-03-04T06:43:07.637Z,99.90
2023-03-04T06:45:34.221Z,99.90
2023-03-04T06:48:00.902Z,99.90
2023-03-04T06:50:27.523Z,99.90
2023-03-04T06:52:57.017Z,99.90
2023-03-04T06:55:24.220Z,99.90
2023-03-04T06:57:51.397Z,99.90
2023-03-04T07:00:19.346Z,99.90
2023-03-04T07:02:46.014Z,99.90
2023-03-04T07:05:12.672Z,99.90
2023-03-04T07:07:39.255Z,99.90
2023-03-04T07:10:06.789Z,99.90
2023-03-04T07:12:33.525Z,99.90
2023-03-04T07:15:00.230Z,99.90
2023-03-04T07:17:26.865Z,99.90
2023-03-04T07:19:53.649Z,99.90
2023-03-04T07:22:20.280Z,99.90
2023-03-04T07:24:46.899Z,99.90
2023-03-04T07:27:13.611Z,99.90
2023-03-04T07:29:40.229Z,99.90
2023-03-04T07:32:10.590Z,99.90
2023-03-04T07:34:37.359Z,99.90
2023-03-04T07:37:04.419Z,99.90
2023-03-04T07:39:31.173Z,99.90
2023-03-04T07:41:57.780Z,99.90
2023-03-04T07:44:24.524Z,99.90
2023-03-04T07:46:51.114Z,99.90
2023-03-04T07:49:17.749Z,99.90
2023-03-04T07:51:44.578Z,99.90
2023-03-04T07:54:11.633Z,99.90
2023-03-04T07:56:38.276Z,99.90
2023-03-04T07:59:04.902Z,99.90
2023-03-04T08:01:34.364Z,99.90
2023-03-04T08:04:01.684Z,99.90
2023-03-04T08:06:29.296Z,99.90
2023-03-04T08:09:06.698Z,99.90
2023-03-04T08:11:34.427Z,98.00
2023-03-04T08:14:01.045Z,96.60
2023-03-04T08:16:28.146Z,95.50
2023-03-04T08:18:57.989Z,93.50
2023-03-04T08:21:26.952Z,93.00
2023-03-04T08:23:54.449Z,91.90
2023-03-04T08:26:30.665Z,90.90
2023-03-04T08:28:57.854Z,89.80
2023-03-04T08:31:24.819Z,88.10
2023-03-04T08:33:52.782Z,86.50
2023-03-04T08:36:19.858Z,84.90
2023-03-04T08:38:46.676Z,84.30
2023-03-04T08:41:13.428Z,83.60
2023-03-04T08:43:40.325Z,81.70
2023-03-04T08:46:07.550Z,80.00
2023-03-04T08:48:34.335Z,78.90
2023-03-04T08:51:01.074Z,75.70
2023-03-04T08:53:27.746Z,73.00
2023-03-04T08:55:54.427Z,70.20
2023-03-04T08:58:21.053Z,67.30
2023-03-04T09:00:51.318Z,64.90
2023-03-04T09:03:19.946Z,62.40
2023-03-04T09:05:47.938Z,60.20
2023-03-04T09:08:16.012Z,58.90
2023-03-04T09:10:43.315Z,57.00
2023-03-04T09:13:16.126Z,57.00
2023-03-04T09:15:47.690Z,55.00
2023-03-04T09:18:15.168Z,54.60
2023-03-04T09:20:42.060Z,53.20
2023-03-04T09:23:09.629Z,51.50
2023-03-04T09:25:37.826Z,50.00
2023-03-04T09:28:05.074Z,48.60
2023-03-04T09:30:32.279Z,47.90
2023-03-04T09:32:58.878Z,46.80
2023-03-04T09:35:25.806Z,45.90
2023-03-04T09:37:52.960Z,45.10
2023-03-04T09:40:28.223Z,44.00
2023-03-04T09:43:06.013Z,43.60
2023-03-04T09:45:40.863Z,42.80
2023-03-04T09:48:11.267Z,43.30
2023-03-04T09:50:46.816Z,43.40
2023-03-04T09:53:22.914Z,42.60
2023-03-04T09:55:52.062Z,42.20
2023-03-04T09:58:27.593Z,40.90
2023-03-04T10:01:23.380Z,41.30
2023-03-04T10:03:59.218Z,41.90
2023-03-04T10:06:37.107Z,40.90
2023-03-04T10:09:11.827Z,39.60
2023-03-04T10:11:55.528Z,39.80
2023-03-04T10:14:22.188Z,39.60
2023-03-04T10:16:51.603Z,38.80
2023-03-04T10:19:25.718Z,38.40
2023-03-04T10:21:52.649Z,37.90
2023-03-04T10:24:22.558Z,40.50
2023-03-04T10:26:54.397Z,40.70
2023-03-04T10:29:24.359Z,39.70
2023-03-04T10:31:51.562Z,38.50
2023-03-04T10:34:18.513Z,39.30
2023-03-04T10:36:52.319Z,38.00
2023-03-04T10:39:24.576Z,38.10
2023-03-04T10:41:58.157Z,38.60
2023-03-04T10:44:25.511Z,37.90
2023-03-04T10:46:55.286Z,37.70
2023-03-04T10:49:24.794Z,39.00
2023-03-04T10:52:35.372Z,39.10
2023-03-04T10:55:15.442Z,41.70
2023-03-04T10:57:44.534Z,41.10
2023-03-04T11:00:28.492Z,42.00
2023-03-04T11:03:20.898Z,41.90
2023-03-04T11:05:47.662Z,43.30
2023-03-04T11:08:19.710Z,42.60
2023-03-04T11:10:47.275Z,41.80
2023-03-04T11:13:18.914Z,42.50
2023-03-04T11:15:53.511Z,46.10
2023-03-04T11:18:41.319Z,45.50
2023-03-04T11:21:12.767Z,43.60
2023-03-04T11:23:52.157Z,44.40
2023-03-04T11:26:25.806Z,44.90
2023-03-04T11:28:54.292Z,44.30
2023-03-04T11:31:27.274Z,45.50
2023-03-04T11:34:23.089Z,44.30
2023-03-04T11:37:05.395Z,45.10
2023-03-04T11:39:34.830Z,45.40
2023-03-04T11:42:53.798Z,44.40
2023-03-04T11:45:33.962Z,46.40
2023-03-04T11:48:15.016Z,47.70
2023-03-04T11:51:07.286Z,47.90
2023-03-04T11:53:37.330Z,47.70
2023-03-04T11:56:13.114Z,49.00
2023-03-04T11:59:01.510Z,50.20
2023-03-04T12:01:31.642Z,50.40
2023-03-04T12:04:17.801Z,52.50
2023-03-04T12:07:06.577Z,53.20
2023-03-04T12:09:45.236Z,52.60
2023-03-04T12:12:45.907Z,52.60
2023-03-04T12:15:38.104Z,54.20
2023-03-04T12:18:32.655Z,55.20
2023-03-04T12:21:17.086Z,56.10
2023-03-04T12:23:55.496Z,55.00
2023-03-04T12:26:30.316Z,55.40
2023-03-04T12:29:20.232Z,54.80
2023-03-04T12:31:50.304Z,53.40
2023-03-04T12:34:27.685Z,52.90
2023-03-04T12:37:22.167Z,51.90
2023-03-04T12:39:54.724Z,51.90
2023-03-04T12:42:43.099Z,53.50
2023-03-04T12:45:32.829Z,53.40
2023-03-04T12:48:07.548Z,52.40
2023-03-04T12:50:53.344Z,51.40
2023-03-04T12:53:37.840Z,53.50
2023-03-04T12:56:07.982Z,57.20
2023-03-04T12:58:36.926Z,59.60
2023-03-04T13:01:24.783Z,61.00
2023-03-04T13:03:57.216Z,61.60
2023-03-04T13:06:30.007Z,61.20
2023-03-04T13:09:25.473Z,59.10
2023-03-04T13:12:17.293Z,58.90
2023-03-04T13:15:05.824Z,59.80
2023-03-04T13:17:38.621Z,59.60
2023-03-04T13:20:39.725Z,58.40
2023-03-04T13:23:09.098Z,58.30
2023-03-04T13:25:40.380Z,57.30
2023-03-04T13:28:10.035Z,57.00
2023-03-04T13:30:38.133Z,57.30
2023-03-04T13:33:16.488Z,58.40
2023-03-04T13:35:49.021Z,58.70
2023-03-04T13:38:31.513Z,58.90
2023-03-04T13:41:14.024Z,58.50
2023-03-04T13:43:47.869Z,58.40
2023-03-04T13:46:20.589Z,58.70
2023-03-04T13:49:02.298Z,58.90
2023-03-04T13:51:45.091Z,60.10
2023-03-04T13:54:27.509Z,59.60
2023-03-04T13:57:00.333Z,60.30
2023-03-04T13:59:42.139Z,61.60
2023-03-04T14:02:22.426Z,62.30
2023-03-04T14:04:54.899Z,61.70
2023-03-04T14:07:24.783Z,60.10
2023-03-04T14:09:58.024Z,59.70
2023-03-04T14:12:26.342Z,59.50
2023-03-04T14:14:56.121Z,59.50
2023-03-04T14:17:32.501Z,58.50
2023-03-04T14:20:00.554Z,58.70
2023-03-04T14:22:33.960Z,58.80
2023-03-04T14:25:03.469Z,59.30
2023-03-04T14:27:35.227Z,59.90
2023-03-04T14:30:07.938Z,59.30
2023-03-04T14:32:35.036Z,58.60
2023-03-04T14:35:17.869Z,57.10
2023-03-04T14:37:49.980Z,57.00
2023-03-04T14:40:26.981Z,57.90
2023-03-04T14:43:05.462Z,57.80
2023-03-04T14:45:32.138Z,57.20
2023-03-04T14:48:06.685Z,56.60
2023-03-04T14:50:35.701Z,56.80
2023-03-04T14:53:09.205Z,56.80
2023-03-04T14:55:35.984Z,57.20
2023-03-04T14:58:18.505Z,57.30
2023-03-04T15:00:45.521Z,57.60
2023-03-04T15:03:22.020Z,58.10
2023-03-04T15:05:49.126Z,58.70
2023-03-04T15:08:20.701Z,59.80
2023-03-04T15:10:56.792Z,61.40
2023-03-04T15:13:44.500Z,62.90
2023-03-04T15:16:13.697Z,63.00
2023-03-04T15:19:05.726Z,65.10
2023-03-04T15:21:36.880Z,66.30
2023-03-04T15:24:06.026Z,65.40
2023-03-04T15:26:34.492Z,65.10
2023-03-04T15:29:03.530Z,65.50
2023-03-04T15:31:30.215Z,65.40
2023-03-04T15:33:56.890Z,65.80
2023-03-04T15:36:23.977Z,66.20
2023-03-04T15:38:52.952Z,67.00
2023-03-04T15:41:24.100Z,67.90
2023-03-04T15:43:51.954Z,68.40
2023-03-04T15:46:18.765Z,68.40
2023-03-04T15:48:45.964Z,69.20
2023-03-04T15:51:19.745Z,69.10
2023-03-04T15:53:49.633Z,69.10
2023-03-04T15:56:25.043Z,70.50
2023-03-04T15:59:02.399Z,69.90
2023-03-04T16:01:30.515Z,71.30
2023-03-04T16:03:57.132Z,72.30
2023-03-04T16:06:27.132Z,73.10
2023-03-04T16:08:53.823Z,74.40
2023-03-04T16:11:23.107Z,74.70
2023-03-04T16:13:50.153Z,75.50
2023-03-04T16:16:17.294Z,75.30
2023-03-04T16:18:44.970Z,76.80
2023-03-04T16:21:18.759Z,77.20
2023-03-04T16:23:48.433Z,77.70
2023-03-04T16:26:20.737Z,78.10
2023-03-04T16:28:47.425Z,78.60
2023-03-04T16:31:15.950Z,77.70
2023-03-04T16:33:42.997Z,77.90
2023-03-04T16:36:24.348Z,77.00
2023-03-04T16:38:52.449Z,74.60
2023-03-04T16:41:23.993Z,73.10
2023-03-04T16:43:50.640Z,72.00
2023-03-04T16:46:17.275Z,70.30
2023-03-04T16:48:43.907Z,70.40
2023-03-04T16:51:19.503Z,69.00
2023-03-04T16:53:52.946Z,69.90
2023-03-04T16:56:20.432Z,69.80
2023-03-04T16:58:47.318Z,69.20
2023-03-04T17:01:19.716Z,68.80
2023-03-04T17:03:46.839Z,68.50
2023-03-04T17:06:14.121Z,68.50
2023-03-04T17:08:41.651Z,69.10
2023-03-04T17:11:12.696Z,69.20
2023-03-04T17:13:39.356Z,69.10
2023-03-04T17:16:06.325Z,69.80
2023-03-04T17:18:33.175Z,70.90
2023-03-04T17:21:08.632Z,71.90
2023-03-04T17:23:35.310Z,72.40
2023-03-04T17:26:02.416Z,72.70
2023-03-04T17:28:29.404Z,73.20
2023-03-04T17:30:56.097Z,73.20
2023-03-04T17:33:23.206Z,73.60
2023-03-04T17:35:50.035Z,74.20
2023-03-04T17:38:17.349Z,75.70
2023-03-04T17:40:44.918Z,75.40
2023-03-04T17:43:11.598Z,75.60
2023-03-04T17:45:39.493Z,77.30
2023-03-04T17:48:06.864Z,78.20
2023-03-04T17:50:34.546Z,78.70
2023-03-04T17:53:01.183Z,79.00
2023-03-04T17:55:27.923Z,79.70
2023-03-04T17:57:57.345Z,80.20
2023-03-04T18:00:24.215Z,80.20
2023-03-04T18:02:50.821Z,80.40
2023-03-04T18:05:17.457Z,81.60
2023-03-04T18:07:44.100Z,82.10
2023-03-04T18:10:11.222Z,82.50
2023-03-04T18:12:37.869Z,82.90
2023-03-04T18:15:04.936Z,83.60
2023-03-04T18:17:31.619Z,83.90
2023-03-04T18:19:58.344Z,84.90
2023-03-04T18:22:24.992Z,84.30
2023-03-04T18:24:51.724Z,84.60
2023-03-04T18:27:18.486Z,85.20
2023-03-04T18:29:45.095Z,86.80
2023-03-04T18:32:11.885Z,86.30
2023-03-04T18:34:38.610Z,86.40
2023-03-04T18:37:05.256Z,86.40
2023-03-04T18:39:31.883Z,86.60
2023-03-04T18:41:59.129Z,87.10
2023-03-04T18:44:25.784Z,88.10
2023-03-04T18:46:56.155Z,89.20
2023-03-04T18:49:23.639Z,89.20
2023-03-04T18:51:50.273Z,89.10
2023-03-04T18:54:17.012Z,89.40
2023-03-04T18:56:48.402Z,89.50
2023-03-04T18:59:26.295Z,90.00
2023-03-04T19:01:54.319Z,89.70
2023-03-04T19:04:23.038Z,90.10
2023-03-04T19:06:49.914Z,90.20
2023-03-04T19:09:16.624Z,90.30
2023-03-04T19:11:43.295Z,90.40
2023-03-04T19:14:11.628Z,90.60
2023-03-04T19:16:40.551Z,90.70
2023-03-04T19:19:07.636Z,90.70
2023-03-04T19:21:38.176Z,90.90
2023-03-04T19:24:05.476Z,91.10
2023-03-04T19:26:32.425Z,91.60
2023-03-04T19:28:59.057Z,92.00
2023-03-04T19:31:25.800Z,92.30
2023-03-04T19:33:52.553Z,92.70
2023-03-04T19:36:19.186Z,93.30
2023-03-04T19:38:45.933Z,93.90
2023-03-04T19:41:15.031Z,94.40
2023-03-04T19:43:42.029Z,95.20
2023-03-04T19:46:10.020Z,95.80
2023-03-04T19:48:37.124Z,95.90
2023-03-04T19:51:05.043Z,96.20
2023-03-04T19:53:34.581Z,96.30
2023-03-04T19:56:01.534Z,96.60
2023-03-04T19:58:28.244Z,97.40
2023-03-04T20:00:56.086Z,97.80
2023-03-04T20:03:23.964Z,98.20
2023-03-04T20:05:50.685Z,99.00
2023-03-04T20:08:17.319Z,99.20
2023-03-04T20:10:44.029Z,99.30
2023-03-04T20:13:10.716Z,99.20
2023-03-04T20:15:41.585Z,99.70
2023-03-04T20:18:08.202Z,99.90
2023-03-04T20:20:38.322Z,99.90
2023-03-04T20:23:05.816Z,99.90
2023-03-04T20:25:32.726Z,99.90
2023-03-04T20:27:59.503Z,99.90
2023-03-04T20:30:26.148Z,99.90
2023-03-04T20:32:52.771Z,99.90
2023-03-04T20:35:19.970Z,99.90
2023-03-04T20:37:46.586Z,99.90
2023-03-04T20:40:13.699Z,99.90
2023-03-04T20:42:40.414Z,99.90
2023-03-04T20:45:07.836Z,99.90
2023-03-04T20:47:34.445Z,99.90
2023-03-04T20:50:01.239Z,99.90
2023-03-04T20:52:27.916Z,99.90
2023-03-04T20:54:54.511Z,99.90
2023-03-04T20:57:21.429Z,99.90
2023-03-04T20:59:48.583Z,99.90
2023-03-04T21:02:17.173Z,99.90
2023-03-04T21:04:43.979Z,99.90
2023-03-04T21:07:11.602Z,99.90
2023-03-04T21:09:38.274Z,99.90
2023-03-04T21:12:05.219Z,99.90
2023-03-04T21:14:32.808Z,99.90
2023-03-04T21:17:02.229Z,99.90
2023-03-04T21:19:31.743Z,99.90
2023-03-04T21:22:00.050Z,99.90
2023-03-04T21:24:30.466Z,99.90
2023-03-04T21:26:57.992Z,99.90
2023-03-04T21:29:26.910Z,99.90
2023-03-04T21:31:56.314Z,99.90
2023-03-04T21:34:28.413Z,99.90
2023-03-04T21:36:55.074Z,99.90
2023-03-04T21:39:24.296Z,99.90
2023-03-04T21:41:51.843Z,99.90
2023-03-04T21:44:28.437Z,99.90
2023-03-04T21:46:56.948Z,99.90
2023-03-04T21:49:23.744Z,99.90
2023-03-04T21:51:50.441Z,99.90
2023-03-04T21:54:17.104Z,99.90
2023-03-04T21:56:43.842Z,99.90
2023-03-04T21:59:13.528Z,99.90
2023-03-04T22:01:41.293Z,99.90
2023-03-04T22:04:08.356Z,99.90
2023-03-04T22:06:34.997Z,99.90
2023-03-04T22:09:03.545Z,99.90
2023-03-04T22:11:30.958Z,99.90
2023-03-04T22:14:00.914Z,99.90
2023-03-04T22:16:28.729Z,99.90
2023-03-04T22:18:55.642Z,99.90
2023-03-04T22:21:22.380Z,99.90
2023-03-04T22:23:49.052Z,99.90
2023-03-04T22:26:18.405Z,99.90
2023-03-04T22:28:45.913Z,99.90
2023-03-04T22:31:21.586Z,99.90
2023-03-04T22:33:48.224Z,99.90
2023-03-04T22:36:14.929Z,99.90
2023-03-04T22:38:42.134Z,99.90
2023-03-04T22:41:17.010Z,99.90
2023-03-04T22:43:44.267Z,99.90
2023-03-04T22:46:16.907Z,99.90
2023-03-04T22:48:43.667Z,99.90
2023-03-04T22:51:10.610Z,99.90
2023-03-04T22:53:37.851Z,99.90
2023-03-04T22:56:05.922Z,99.90
2023-03-04T22:58:32.863Z,99.90
2023-03-04T23:00:59.876Z,99.90
2023-03-04T23:03:26.602Z,99.90
2023-03-04T23:06:08.645Z,99.90
2023-03-04T23:08:37.172Z,99.90
2023-03-04T23:11:08.926Z,99.90
2023-03-04T23:13:36.298Z,99.90
2023-03-04T23:16:06.158Z,99.90
2023-03-04T23:18:32.782Z,99.90
2023-03-04T23:20:59.404Z,99.90
2023-03-04T23:23:26.190Z,99.90
2023-03-04T23:25:52.943Z,99.90
2023-03-04T23:28:19.702Z,99.90
2023-03-04T23:30:46.336Z,99.90
2023-03-04T23:33:13.007Z,99.90
2023-03-04T23:35:39.687Z,99.90
2023-03-04T23:38:06.363Z,99.90
2023-03-04T23:40:33.024Z,99.90
2023-03-04T23:42:59.665Z,99.90
2023-03-04T23:45:26.383Z,99.90
2023-03-04T23:47:53.068Z,99.90
2023-03-04T23:50:19.986Z,99.90
2023-03-04T23:52:46.816Z,99.90
2023-03-04T23:55:16.652Z,99.90
2023-03-04T23:57:43.983Z,99.90
